Time;durP1;ratioP1;P1;durP2;ratioP2;P2;SDS_P1;SDS_P2;PMS_P1;PMS_P2;Temp;Humidity;BMP_temperature;BMP_pressure;BME280_temperature;BME280_humidity;BME280_pressure;Samples;Min_cycle;Max_cycle;Signal;HPM_P1;HPM_P2
2024/01/04 00:02:03;;;;;;;2.83;0.73;;;8.30;1.00;;;;;;7374859;19;20375;-70
2024/01/04 00:04:33;;;;;;;2.85;1.08;;;8.30;1.00;;;;;;7375945;19;20409;-70
2024/01/04 00:07:06;;;;;;;2.42;1.00;;;8.20;1.00;;;;;;7375725;19;20035;-71
2024/01/04 00:09:36;;;;;;;5.90;0.88;;;8.30;1.00;;;;;;7376801;19;20085;-70
2024/01/04 00:12:06;;;;;;;4.53;0.90;;;8.20;1.00;;;;;;7374016;19;20042;-70
2024/01/04 00:14:36;;;;;;;2.47;0.90;;;8.20;1.00;;;;;;7379052;19;20039;-69
2024/01/04 00:17:06;;;;;;;1.10;0.50;;;8.10;1.00;;;;;;7381780;19;20011;-70
2024/01/04 00:19:36;;;;;;;3.25;1.05;;;7.90;1.00;;;;;;7379526;19;20018;-70
2024/01/04 00:22:09;;;;;;;2.13;0.93;;;7.90;1.00;;;;;;7382483;19;20534;-70
2024/01/04 00:24:39;;;;;;;1.25;0.50;;;7.70;1.00;;;;;;7382688;19;20363;-70
2024/01/04 00:27:09;;;;;;;5.85;1.08;;;7.70;1.00;;;;;;7381392;19;20007;-71
2024/01/04 00:29:39;;;;;;;1.35;0.50;;;7.70;1.00;;;;;;7382588;19;20022;-71
2024/01/04 00:32:09;;;;;;;3.83;0.80;;;7.60;1.00;;;;;;7381918;19;20013;-70
2024/01/04 00:34:39;;;;;;;2.50;0.60;;;7.60;2.90;;;;;;7381719;19;20784;-71
2024/01/04 00:37:12;;;;;;;2.20;0.57;;;7.60;2.00;;;;;;7382250;19;20512;-71
2024/01/04 00:39:42;;;;;;;1.67;0.45;;;7.50;4.80;;;;;;7381358;19;20010;-71
2024/01/04 00:42:12;;;;;;;2.00;0.65;;;7.50;6.60;;;;;;7381452;19;20021;-72
2024/01/04 00:44:42;;;;;;;1.98;0.65;;;7.50;3.10;;;;;;7382400;19;20018;-71
2024/01/04 00:47:12;;;;;;;1.35;0.50;;;7.50;6.70;;;;;;7381439;19;20819;-70
2024/01/04 00:49:42;;;;;;;5.32;0.95;;;7.50;3.00;;;;;;7381930;19;20746;-71
2024/01/04 00:52:15;;;;;;;3.85;0.80;;;7.50;1.30;;;;;;7380429;19;20031;-70
2024/01/04 00:54:45;;;;;;;2.35;0.77;;;7.50;4.50;;;;;;7381562;19;20018;-71
2024/01/04 00:57:15;;;;;;;1.27;0.50;;;7.50;8.60;;;;;;7380909;19;20007;-71
2024/01/04 00:59:45;;;;;;;2.50;0.68;;;7.50;1.00;;;;;;7381090;19;20006;-71
2024/01/04 01:02:15;;;;;;;2.03;0.50;;;7.50;1.00;;;;;;7381498;19;20115;-70
2024/01/04 01:04:45;;;;;;;3.08;0.65;;;7.50;1.00;;;;;;7382041;19;20116;-71
2024/01/04 01:07:18;;;;;;;3.80;0.75;;;7.50;1.00;;;;;;7380866;19;20341;-70
2024/01/04 01:09:48;;;;;;;1.10;0.40;;;7.60;1.00;;;;;;7381342;19;20468;-71
2024/01/04 01:12:18;;;;;;;3.47;0.80;;;7.60;1.00;;;;;;7379964;19;20498;-70
2024/01/04 01:14:48;;;;;;;1.55;0.80;;;7.60;1.00;;;;;;7382051;19;20087;-70
2024/01/04 01:17:19;;;;;;;3.85;0.75;;;7.60;1.00;;;;;;7377896;19;20027;-70
2024/01/04 01:19:49;;;;;;;1.33;0.60;;;7.60;1.00;;;;;;7380573;19;20011;-71
2024/01/04 01:22:24;;;;;;;2.13;0.47;;;7.60;1.00;;;;;;7379392;19;20022;-70
2024/01/04 01:24:54;;;;;;;2.90;0.50;;;7.50;1.00;;;;;;7381198;19;20006;-71
2024/01/04 01:27:24;;;;;;;2.67;0.60;;;7.50;1.00;;;;;;7381161;19;20003;-70
2024/01/04 01:29:55;;;;;;;2.25;0.75;;;7.50;1.00;;;;;;7380913;19;20007;-70
2024/01/04 01:32:25;;;;;;;0.93;0.40;;;7.50;1.00;;;;;;7380203;19;20007;-70
2024/01/04 01:34:57;;;;;;;1.00;0.50;;;7.50;1.00;;;;;;7381745;19;20014;-70
2024/01/04 01:37:30;;;;;;;2.47;0.55;;;7.50;1.00;;;;;;7379045;19;25984;-70
2024/01/04 01:40:00;;;;;;;1.98;0.50;;;7.40;1.00;;;;;;7379686;19;20014;-69
2024/01/04 01:42:30;;;;;;;1.60;0.50;;;7.30;1.00;;;;;;7379624;19;20021;-69
2024/01/04 01:45:00;;;;;;;2.83;0.70;;;7.30;1.00;;;;;;7380864;19;20019;-70
2024/01/04 01:47:31;;;;;;;3.03;0.57;;;7.30;1.00;;;;;;7379871;19;20403;-69
2024/01/04 01:50:01;;;;;;;2.17;0.82;;;7.30;1.00;;;;;;7380316;19;20018;-70
2024/01/04 01:52:34;;;;;;;2.08;0.50;;;7.40;1.00;;;;;;7379060;19;20051;-71
2024/01/04 01:55:06;;;;;;;1.20;0.50;;;7.40;1.00;;;;;;7376144;19;20799;-70
2024/01/04 01:57:36;;;;;;;1.55;0.47;;;7.50;1.00;;;;;;7380787;19;20010;-70
2024/01/04 02:00:09;;;;;;;2.10;0.73;;;7.40;1.00;;;;;;7380197;19;20845;-69
2024/01/04 02:02:47;;;;;;;2.75;0.47;;;7.50;1.00;;;;;;7377894;19;20023;-70
2024/01/04 02:05:17;;;;;;;1.55;0.40;;;7.40;1.00;;;;;;7379657;19;20355;-70
2024/01/04 02:07:50;;;;;;;2.05;0.45;;;7.50;1.00;;;;;;7379088;19;20006;-69
2024/01/04 02:10:20;;;;;;;0.70;0.30;;;7.50;1.00;;;;;;7379255;19;20006;-70
2024/01/04 02:12:50;;;;;;;0.95;0.63;;;7.50;1.00;;;;;;7378403;19;20783;-70
2024/01/04 02:15:20;;;;;;;0.85;0.35;;;7.50;1.00;;;;;;7378482;19;20029;-70
2024/01/04 02:17:50;;;;;;;2.40;0.73;;;7.50;1.00;;;;;;7379721;19;20538;-70
2024/01/04 02:20:22;;;;;;;1.50;0.32;;;7.60;1.00;;;;;;7379338;19;20078;-70
2024/01/04 02:22:54;;;;;;;1.40;0.50;;;7.70;1.00;;;;;;7385983;19;20014;-70
2024/01/04 02:25:25;;;;;;;1.75;0.30;;;7.80;1.00;;;;;;7393353;19;20031;-70
2024/01/04 02:27:55;;;;;;;1.23;0.65;;;7.90;1.00;;;;;;7379977;19;20015;-70
2024/01/04 02:30:25;;;;;;;0.60;0.43;;;8.00;1.00;;;;;;7378766;19;20010;-70
2024/01/04 02:32:55;;;;;;;0.77;0.35;;;8.00;1.00;;;;;;7378524;19;20010;-69
2024/01/04 02:35:25;;;;;;;1.45;0.40;;;8.00;1.00;;;;;;7379514;19;20108;-69
2024/01/04 02:37:58;;;;;;;1.58;0.30;;;8.10;1.00;;;;;;7377517;19;20077;-69
2024/01/04 02:40:28;;;;;;;1.55;0.35;;;8.10;1.00;;;;;;7378068;19;20025;-70
2024/01/04 02:42:59;;;;;;;2.70;0.40;;;8.20;1.00;;;;;;7377935;19;20011;-69
2024/01/04 02:45:29;;;;;;;2.05;0.40;;;8.20;1.00;;;;;;7378053;19;20007;-69
2024/01/04 02:47:59;;;;;;;2.47;0.30;;;8.20;1.00;;;;;;7377810;19;20040;-70
2024/01/04 02:50:31;;;;;;;2.55;0.60;;;8.20;1.00;;;;;;7377721;19;20006;-70
2024/01/04 02:53:03;;;;;;;0.85;0.30;;;8.20;1.00;;;;;;7377335;19;20014;-70
2024/01/04 02:55:33;;;;;;;2.15;0.40;;;8.10;1.00;;;;;;7378437;19;20006;-71
2024/01/04 02:58:04;;;;;;;1.15;0.20;;;8.00;1.00;;;;;;7377198;19;20017;-71
2024/01/04 03:00:34;;;;;;;0.55;0.20;;;8.00;1.00;;;;;;7376741;19;20015;-71
2024/01/04 03:03:04;;;;;;;0.70;0.20;;;7.90;1.00;;;;;;7377809;19;20466;-71
2024/01/04 03:05:34;;;;;;;1.42;0.40;;;7.90;1.00;;;;;;7378846;19;20018;-71
2024/01/04 03:08:07;;;;;;;3.67;0.38;;;7.90;1.00;;;;;;7377270;19;20475;-71
2024/01/04 03:10:37;;;;;;;2.20;0.20;;;7.90;1.00;;;;;;7377554;19;20029;-71
2024/01/04 03:13:09;;;;;;;1.58;0.30;;;7.80;1.00;;;;;;7376481;19;20010;-71
2024/01/04 03:15:39;;;;;;;0.60;0.20;;;7.80;1.00;;;;;;7377560;19;20006;-71
2024/01/04 03:18:09;;;;;;;0.88;0.20;;;7.70;1.00;;;;;;7377056;19;20014;-70
2024/01/04 03:20:40;;;;;;;0.55;0.10;;;7.70;1.00;;;;;;7378333;19;20081;-70
2024/01/04 03:23:13;;;;;;;0.73;0.30;;;7.60;1.00;;;;;;7371812;19;20014;-70
2024/01/04 03:25:43;;;;;;;1.02;0.30;;;7.60;1.00;;;;;;7375891;19;20376;-70
2024/01/04 03:28:13;;;;;;;1.05;0.20;;;7.70;1.00;;;;;;7377332;19;20006;-70
2024/01/04 03:30:43;;;;;;;0.65;0.20;;;7.80;1.00;;;;;;7379637;19;20018;-71
2024/01/04 03:33:13;;;;;;;4.20;0.32;;;7.80;1.00;;;;;;7377311;19;20021;-70
2024/01/04 03:35:44;;;;;;;1.05;0.40;;;7.80;1.00;;;;;;7373612;19;20047;-70
2024/01/04 03:38:16;;;;;;;1.08;0.40;;;7.80;1.00;;;;;;7376619;19;20032;-70
2024/01/04 03:40:46;;;;;;;1.60;0.43;;;7.90;1.00;;;;;;7371536;19;20008;-71
2024/01/04 03:43:16;;;;;;;2.05;0.80;;;8.00;1.00;;;;;;7377124;19;20340;-71
2024/01/04 03:45:46;;;;;;;2.20;0.57;;;8.10;1.00;;;;;;7377178;19;20141;-71
2024/01/04 03:48:16;;;;;;;1.77;0.60;;;8.20;1.00;;;;;;7376370;19;20011;-70
2024/01/04 03:50:46;;;;;;;4.18;0.50;;;8.40;1.00;;;;;;7382711;19;20089;-71
2024/01/04 03:53:19;;;;;;;1.85;0.60;;;8.40;1.00;;;;;;7385277;19;20014;-70
2024/01/04 03:55:49;;;;;;;1.38;0.40;;;8.40;1.00;;;;;;7381403;19;20006;-69
2024/01/04 03:58:19;;;;;;;1.20;0.40;;;8.40;1.00;;;;;;7382052;19;20011;-70
2024/01/04 04:00:53;;;;;;;2.60;0.90;;;8.40;1.00;;;;;;7379696;19;20035;-70
2024/01/04 04:03:23;;;;;;;2.03;0.50;;;8.50;1.00;;;;;;7382530;19;20061;-70
2024/01/04 04:05:54;;;;;;;1.42;0.52;;;8.50;1.00;;;;;;7382255;19;20484;-69
2024/01/04 04:08:26;;;;;;;2.80;0.57;;;8.50;1.00;;;;;;7381363;19;20013;-70
2024/01/04 04:10:56;;;;;;;3.42;0.75;;;8.50;1.00;;;;;;7381774;19;20069;-69
2024/01/04 04:13:26;;;;;;;3.00;1.25;;;8.60;1.00;;;;;;7380829;19;20010;-69
2024/01/04 04:15:56;;;;;;;4.03;1.17;;;8.60;1.00;;;;;;7381596;19;20007;-69
2024/01/04 04:18:26;;;;;;;3.92;0.80;;;8.70;1.00;;;;;;7380369;19;20035;-69
2024/01/04 04:20:57;;;;;;;5.75;1.23;;;8.70;1.00;;;;;;7382737;19;20031;-70
2024/01/04 04:23:30;;;;;;;2.80;0.60;;;8.70;1.00;;;;;;7381910;19;20014;-70
2024/01/04 04:26:00;;;;;;;2.72;0.80;;;8.70;1.00;;;;;;7381572;19;20530;-69
2024/01/04 04:28:30;;;;;;;3.55;0.85;;;8.70;1.00;;;;;;7379743;19;20470;-69
2024/01/04 04:31:00;;;;;;;3.53;0.60;;;8.70;1.00;;;;;;7378025;19;20010;-70
2024/01/04 04:33:30;;;;;;;2.65;0.90;;;8.80;1.00;;;;;;7381273;19;20021;-70
2024/01/04 04:36:00;;;;;;;3.13;0.95;;;8.80;1.00;;;;;;7381728;19;20471;-70
2024/01/04 04:38:35;;;;;;;2.80;0.75;;;8.80;1.00;;;;;;7381439;19;20081;-69
2024/01/04 04:41:06;;;;;;;2.72;0.82;;;8.80;1.00;;;;;;7381130;19;20402;-69
2024/01/04 04:43:37;;;;;;;2.55;0.75;;;8.80;1.00;;;;;;7380506;19;20010;-69
2024/01/04 04:46:09;;;;;;;3.85;0.70;;;8.90;1.00;;;;;;7380508;19;20018;-69
2024/01/04 04:48:40;;;;;;;2.38;0.65;;;8.80;1.00;;;;;;7381517;19;20006;-69
2024/01/04 04:51:12;;;;;;;4.60;0.77;;;8.90;1.00;;;;;;7381204;19;20014;-70
2024/01/04 04:53:45;;;;;;;3.03;0.73;;;8.90;1.00;;;;;;7388606;19;20010;-69
2024/01/04 04:56:15;;;;;;;2.05;0.70;;;8.90;1.00;;;;;;7395138;19;20513;-69
2024/01/04 04:58:45;;;;;;;2.28;0.70;;;8.80;1.00;;;;;;7381006;19;20407;-69
2024/01/04 05:01:15;;;;;;;3.10;0.93;;;8.80;1.00;;;;;;7381627;19;20031;-70
2024/01/04 05:03:46;;;;;;;2.45;0.60;;;8.70;1.00;;;;;;7379989;19;20591;-69
2024/01/04 05:06:18;;;;;;;1.70;0.70;;;8.70;1.00;;;;;;7381620;19;20010;-69
2024/01/04 05:08:51;;;;;;;3.83;0.80;;;8.60;1.00;;;;;;7382114;19;20017;-69
2024/01/04 05:11:21;;;;;;;4.28;0.80;;;8.70;1.00;;;;;;7377076;19;20624;-70
2024/01/04 05:13:51;;;;;;;3.83;1.00;;;8.70;1.00;;;;;;7379865;19;20013;-70
2024/01/04 05:16:21;;;;;;;3.85;0.93;;;8.60;1.00;;;;;;7380305;19;20006;-70
2024/01/04 05:18:52;;;;;;;2.67;0.68;;;8.50;1.00;;;;;;7379599;19;20037;-69
2024/01/04 05:21:22;;;;;;;1.83;0.80;;;8.50;1.00;;;;;;7379588;19;20010;-69
2024/01/04 05:23:55;;;;;;;2.83;0.63;;;8.50;1.00;;;;;;7379942;19;20014;-69
2024/01/04 05:26:26;;;;;;;1.58;0.73;;;8.40;1.00;;;;;;7379546;19;20475;-71
2024/01/04 05:28:56;;;;;;;2.65;0.75;;;8.40;1.00;;;;;;7379485;19;20022;-69
2024/01/04 05:31:28;;;;;;;3.65;0.98;;;8.40;1.00;;;;;;7379143;19;20972;-70
2024/01/04 05:33:58;;;;;;;3.42;0.80;;;8.30;1.00;;;;;;7379138;19;20055;-70
2024/01/04 05:36:30;;;;;;;0.95;0.43;;;8.30;1.00;;;;;;7379911;19;20038;-70
2024/01/04 05:39:03;;;;;;;2.42;0.80;;;8.30;1.00;;;;;;7378823;19;20014;-69
2024/01/04 05:41:33;;;;;;;3.38;0.60;;;8.20;1.00;;;;;;7381069;19;20040;-70
2024/01/04 05:44:03;;;;;;;2.78;0.60;;;8.20;1.00;;;;;;7379547;19;20024;-69
2024/01/04 05:46:34;;;;;;;5.72;1.23;;;8.20;1.00;;;;;;7380109;19;20035;-70
2024/01/04 05:49:04;;;;;;;2.80;0.98;;;8.10;1.00;;;;;;7379545;19;20006;-69
2024/01/04 05:51:34;;;;;;;3.50;0.80;;;8.10;1.00;;;;;;7379280;19;20514;-69
2024/01/04 05:54:14;;;;;;;6.28;1.38;;;8.10;1.00;;;;;;7378800;19;20069;-70
2024/01/04 05:56:44;;;;;;;1.60;0.70;;;8.20;1.00;;;;;;7379202;19;20074;-69
2024/01/04 05:59:14;;;;;;;2.28;0.68;;;8.20;1.00;;;;;;7378490;19;20130;-70
2024/01/04 06:01:44;;;;;;;3.75;0.80;;;8.30;1.00;;;;;;7378972;19;20422;-70
2024/01/04 06:04:14;;;;;;;2.40;0.90;;;8.30;1.00;;;;;;7378401;19;20078;-70
2024/01/04 06:06:46;;;;;;;3.40;0.88;;;8.20;1.00;;;;;;7376247;19;20007;-70
2024/01/04 06:09:20;;;;;;;3.90;1.02;;;8.20;1.00;;;;;;7378513;19;20011;-71
2024/01/04 06:11:50;;;;;;;4.45;1.40;;;8.30;1.00;;;;;;7376684;19;20111;-69
2024/01/04 06:14:21;;;;;;;5.50;1.40;;;8.30;1.00;;;;;;7373951;19;20011;-70
2024/01/04 06:16:51;;;;;;;2.53;1.00;;;8.30;1.00;;;;;;7379435;19;20475;-70
2024/01/04 06:19:22;;;;;;;4.60;1.05;;;8.30;1.00;;;;;;7377138;19;20010;-70
2024/01/04 06:21:52;;;;;;;3.80;1.27;;;8.30;1.00;;;;;;7380064;19;20017;-70
2024/01/04 06:24:25;;;;;;;4.05;1.10;;;8.30;1.00;;;;;;7379560;19;20361;-70
2024/01/04 06:26:55;;;;;;;3.92;1.23;;;8.40;1.00;;;;;;7376188;19;20007;-70
2024/01/04 06:29:25;;;;;;;4.65;0.85;;;8.40;1.00;;;;;;7376002;19;20554;-70
2024/01/04 06:31:55;;;;;;;3.17;0.80;;;8.40;1.00;;;;;;7376627;19;20632;-70
2024/01/04 06:34:25;;;;;;;3.63;1.10;;;8.40;1.00;;;;;;7378499;19;20017;-69
2024/01/04 06:36:56;;;;;;;4.13;0.88;;;8.40;1.00;;;;;;7378474;19;20015;-70
2024/01/04 06:39:28;;;;;;;3.67;0.80;;;8.40;1.00;;;;;;7375397;19;20045;-70
2024/01/04 06:42:03;;;;;;;2.63;0.90;;;8.40;1.00;;;;;;7377684;19;20065;-69
2024/01/04 06:44:34;;;;;;;5.93;1.92;;;8.30;1.00;;;;;;7377104;19;20014;-69
2024/01/04 06:47:16;;;;;;;2.92;1.02;;;8.30;1.00;;;;;;7378422;19;20729;-70
2024/01/04 06:49:46;;;;;;;3.70;1.08;;;8.20;1.00;;;;;;7377902;19;20505;-70
2024/01/04 06:52:17;;;;;;;4.38;0.90;;;8.20;1.00;;;;;;7378066;19;20022;-70
2024/01/04 06:54:49;;;;;;;3.38;1.02;;;8.30;1.00;;;;;;7377782;19;20084;-70
2024/01/04 06:57:19;;;;;;;5.00;1.40;;;8.30;1.00;;;;;;7377636;19;20042;-69
2024/01/04 06:59:50;;;;;;;2.08;0.77;;;8.30;1.00;;;;;;7374398;19;20014;-69
2024/01/04 07:02:20;;;;;;;3.35;0.88;;;8.30;1.00;;;;;;7378066;19;20027;-70
2024/01/04 07:04:50;;;;;;;1.83;0.88;;;8.30;1.00;;;;;;7377714;19;20652;-70
2024/01/04 07:07:20;;;;;;;2.28;0.90;;;8.30;1.00;;;;;;7374158;19;20043;-69
2024/01/04 07:09:53;;;;;;;2.95;1.00;;;8.30;1.00;;;;;;7377966;19;20077;-69
2024/01/04 07:12:23;;;;;;;4.20;1.17;;;8.30;1.00;;;;;;7378271;19;20021;-70
2024/01/04 07:14:53;;;;;;;2.38;0.98;;;8.30;1.00;;;;;;7377457;19;20018;-70
2024/01/04 07:17:23;;;;;;;5.18;0.70;;;8.30;1.00;;;;;;7377313;19;20483;-70
2024/01/04 07:19:54;;;;;;;2.30;0.80;;;8.40;1.00;;;;;;7376712;19;20337;-70
2024/01/04 07:22:24;;;;;;;2.20;0.82;;;8.30;1.00;;;;;;7378021;19;20089;-69
2024/01/04 07:24:57;;;;;;;2.85;0.90;;;8.30;1.00;;;;;;7382832;19;20007;-70
2024/01/04 07:27:28;;;;;;;3.17;0.88;;;8.20;1.00;;;;;;7386447;19;20387;-70
2024/01/04 07:30:01;;;;;;;2.50;0.80;;;8.20;1.00;;;;;;7375056;19;20012;-70
2024/01/04 07:32:31;;;;;;;6.03;0.70;;;8.10;1.00;;;;;;7375343;19;20011;-70
2024/01/04 07:35:01;;;;;;;2.25;0.82;;;8.10;1.00;;;;;;7374776;19;20014;-68
2024/01/04 07:37:44;;;;;;;1.40;0.70;;;8.00;1.00;;;;;;7375557;19;20011;-69
2024/01/04 07:40:17;;;;;;;2.67;0.73;;;8.00;1.00;;;;;;7376264;19;20015;-69
2024/01/04 07:42:47;;;;;;;3.22;0.70;;;8.00;1.00;;;;;;7378155;19;20035;-69
2024/01/04 07:45:17;;;;;;;2.78;0.82;;;8.00;1.00;;;;;;7375963;19;20007;-69
2024/01/04 07:47:47;;;;;;;4.35;1.20;;;8.00;1.00;;;;;;7377053;19;20047;-69
2024/01/04 07:50:18;;;;;;;3.42;0.93;;;8.00;1.00;;;;;;7375177;19;20362;-69
2024/01/04 07:52:47;;;;;;;3.72;1.00;;;8.00;1.00;;;;;;7376261;19;20046;-68
2024/01/04 07:55:21;;;;;;;3.30;0.80;;;8.00;1.00;;;;;;7375315;19;20453;-69
2024/01/04 07:57:51;;;;;;;2.38;0.80;;;8.00;1.00;;;;;;7375821;19;20063;-68
2024/01/04 08:00:22;;;;;;;2.00;0.70;;;8.00;1.00;;;;;;7373943;19;20018;-70
2024/01/04 08:02:52;;;;;;;4.15;1.00;;;8.00;1.00;;;;;;7375952;19;20018;-69
2024/01/04 08:05:22;;;;;;;2.72;0.75;;;8.00;1.00;;;;;;7376732;19;20018;-70
2024/01/04 08:07:52;;;;;;;6.72;1.40;;;8.00;1.00;;;;;;7376615;19;20014;-70
2024/01/04 08:10:26;;;;;;;2.70;0.90;;;8.00;1.00;;;;;;7374726;19;20021;-69
2024/01/04 08:12:56;;;;;;;3.85;1.10;;;8.10;1.00;;;;;;7376004;19;20024;-69
2024/01/04 08:15:26;;;;;;;5.53;1.20;;;8.20;1.00;;;;;;7374032;19;20463;-69
2024/01/04 08:17:56;;;;;;;5.40;1.10;;;8.30;1.00;;;;;;7376343;19;20071;-69
2024/01/04 08:20:27;;;;;;;2.53;1.02;;;8.50;1.00;;;;;;7375006;19;20522;-69
2024/01/04 08:22:58;;;;;;;4.47;1.77;;;8.60;1.00;;;;;;7375009;19;20021;-68
2024/01/04 08:25:30;;;;;;;8.68;1.30;;;8.70;1.00;;;;;;7374739;19;20003;-70
2024/01/04 08:28:00;;;;;;;7.07;1.67;;;8.70;1.00;;;;;;7371165;19;20022;-69
2024/01/04 08:30:30;;;;;;;3.95;1.13;;;8.70;1.00;;;;;;7371676;19;20010;-69
2024/01/04 08:33:01;;;;;;;6.43;1.98;;;8.70;1.00;;;;;;7375456;19;20010;-69
2024/01/04 08:35:31;;;;;;;4.78;1.27;;;8.70;1.00;;;;;;7377590;19;20006;-69
2024/01/04 08:38:01;;;;;;;3.33;0.95;;;8.70;1.00;;;;;;7380986;19;20027;-69
2024/01/04 08:40:33;;;;;;;7.80;1.83;;;8.80;1.00;;;;;;7376740;19;20550;-69
2024/01/04 08:43:04;;;;;;;5.03;1.40;;;8.90;1.00;;;;;;7379891;19;20003;-69
2024/01/04 08:45:33;;;;;;;6.68;1.73;;;8.90;1.00;;;;;;7382746;19;20014;-70
2024/01/04 08:48:04;;;;;;;5.40;1.50;;;9.00;1.00;;;;;;7381824;19;20010;-69
2024/01/04 08:50:34;;;;;;;8.02;1.38;;;8.90;1.00;;;;;;7380780;19;20010;-69
2024/01/04 08:53:04;;;;;;;3.00;1.10;;;8.90;1.00;;;;;;7378540;19;20039;-70
2024/01/04 08:55:37;;;;;;;6.85;1.40;;;9.00;1.00;;;;;;7376954;19;20027;-69
2024/01/04 08:58:08;;;;;;;5.40;1.30;;;9.00;1.00;;;;;;7379533;19;20014;-69
2024/01/04 09:00:38;;;;;;;6.53;1.75;;;9.00;1.00;;;;;;7378666;19;20006;-69
2024/01/04 09:03:08;;;;;;;5.82;1.20;;;9.00;1.00;;;;;;7380487;19;20035;-69
2024/01/04 09:05:38;;;;;;;4.15;1.40;;;9.00;1.00;;;;;;7379539;19;20014;-70
2024/01/04 09:08:09;;;;;;;4.82;1.08;;;9.00;1.00;;;;;;7379648;19;20031;-69
2024/01/04 09:10:41;;;;;;;4.90;1.33;;;8.90;1.00;;;;;;7378411;19;20511;-69
2024/01/04 09:13:12;;;;;;;7.78;1.55;;;9.00;1.00;;;;;;7379897;19;20035;-69
2024/01/04 09:15:41;;;;;;;6.35;1.30;;;9.10;1.00;;;;;;7379257;19;20035;-69
2024/01/04 09:18:11;;;;;;;5.55;1.58;;;9.20;1.00;;;;;;7379400;19;20376;-70
2024/01/04 09:20:42;;;;;;;4.57;1.33;;;9.20;1.00;;;;;;7379543;19;20026;-70
2024/01/04 09:23:12;;;;;;;5.18;1.38;;;9.20;1.00;;;;;;7379032;19;20010;-70
2024/01/04 09:25:45;;;;;;;4.53;1.35;;;9.30;1.00;;;;;;7379014;19;20014;-69
2024/01/04 09:28:15;;;;;;;3.58;1.30;;;9.40;1.00;;;;;;7380015;19;20017;-69
2024/01/04 09:30:45;;;;;;;4.68;1.05;;;9.30;1.00;;;;;;7377654;19;20392;-70
2024/01/04 09:33:15;;;;;;;5.00;1.70;;;9.40;1.00;;;;;;7378984;19;20019;-70
2024/01/04 09:35:45;;;;;;;6.05;1.30;;;9.40;1.00;;;;;;7378993;19;20010;-70
2024/01/04 09:38:15;;;;;;;6.47;1.35;;;9.60;1.00;;;;;;7378912;19;20014;-70
2024/01/04 09:40:48;;;;;;;9.77;1.70;;;9.60;1.00;;;;;;7378567;19;20029;-70
2024/01/04 09:43:19;;;;;;;4.32;1.70;;;9.60;1.00;;;;;;7379168;19;20554;-70
2024/01/04 09:45:51;;;;;;;6.20;1.40;;;9.80;1.00;;;;;;7378275;19;20014;-69
2024/01/04 09:48:24;;;;;;;2.78;1.15;;;9.70;1.00;;;;;;7377156;19;20528;-70
2024/01/04 09:51:04;;;;;;;2.80;1.20;;;9.60;1.00;;;;;;7379271;19;20126;-69
2024/01/04 09:53:34;;;;;;;3.75;1.10;;;9.80;1.00;;;;;;7380320;19;20021;-69
2024/01/04 09:56:08;;;;;;;5.15;1.48;;;9.70;1.00;;;;;;7380058;19;20484;-69
2024/01/04 09:58:38;;;;;;;5.35;1.05;;;9.60;1.00;;;;;;7384582;19;20018;-69
2024/01/04 10:01:11;;;;;;;3.85;1.27;;;9.70;1.00;;;;;;7381191;19;20421;-69
2024/01/04 10:03:46;;;;;;;4.72;0.90;;;9.50;1.00;;;;;;7377645;19;20498;-69
2024/01/04 10:06:21;;;;;;;5.00;0.98;;;9.30;1.00;;;;;;7377334;19;20011;-70
2024/01/04 10:08:58;;;;;;;5.82;1.60;;;9.30;1.00;;;;;;7378853;19;20011;-70
2024/01/04 10:11:39;;;;;;;3.83;0.98;;;9.40;1.00;;;;;;7379238;19;20515;-69
2024/01/04 10:14:10;;;;;;;3.70;1.00;;;9.50;1.00;;;;;;7369383;19;20010;-71
2024/01/04 10:16:43;;;;;;;5.15;1.30;;;9.60;1.00;;;;;;7373456;19;20011;-70
2024/01/04 10:19:13;;;;;;;4.60;1.85;;;9.40;1.00;;;;;;7364910;19;20475;-71
2024/01/04 10:21:44;;;;;;;5.30;1.85;;;9.40;1.00;;;;;;7370388;19;20022;-71
2024/01/04 10:24:22;;;;;;;4.10;1.00;;;9.30;1.00;;;;;;7366019;19;20044;-71
2024/01/04 10:27:00;;;;;;;2.65;1.40;;;9.20;1.00;;;;;;7370703;19;20006;-70
2024/01/04 10:29:32;;;;;;;5.68;1.25;;;9.10;1.00;;;;;;7365440;19;20483;-70
2024/01/04 10:32:03;;;;;;;2.63;1.10;;;9.00;1.00;;;;;;7369095;19;20018;-72
2024/01/04 10:34:36;;;;;;;8.02;2.20;;;9.00;1.00;;;;;;7368626;19;20031;-71
2024/01/04 10:37:11;;;;;;;2.67;1.08;;;9.00;1.00;;;;;;7369345;19;20097;-70
2024/01/04 10:39:45;;;;;;;5.28;1.95;;;8.80;1.00;;;;;;7368265;19;20024;-69
2024/01/04 10:42:19;;;;;;;3.35;1.33;;;8.80;1.00;;;;;;7364762;19;20006;-71
2024/01/04 10:44:54;;;;;;;3.30;1.05;;;8.80;1.00;;;;;;7362865;19;20086;-71
2024/01/04 10:47:27;;;;;;;5.53;1.67;;;8.90;1.00;;;;;;7370773;19;20021;-71
2024/01/04 10:50:03;;;;;;;3.90;1.27;;;9.10;1.00;;;;;;7368116;19;20025;-70
2024/01/04 10:52:34;;;;;;;2.80;1.02;;;9.20;1.00;;;;;;7346471;19;20503;-71
2024/01/04 10:55:05;;;;;;;5.07;1.17;;;9.20;1.00;;;;;;7367793;19;20002;-70
2024/01/04 10:57:39;;;;;;;4.53;1.10;;;9.20;1.00;;;;;;7345183;19;20006;-71
2024/01/04 11:00:11;;;;;;;4.80;1.30;;;9.30;1.00;;;;;;7367578;19;20014;-70
2024/01/04 11:02:43;;;;;;;4.35;1.02;;;9.40;1.00;;;;;;7344624;19;20032;-71
2024/01/04 11:05:14;;;;;;;4.40;1.00;;;9.30;1.00;;;;;;7367117;19;20038;-72
2024/01/04 11:07:46;;;;;;;4.32;0.98;;;9.20;1.00;;;;;;7367384;19;20025;-72
2024/01/04 11:10:17;;;;;;;6.03;1.20;;;9.10;1.00;;;;;;7369099;19;20018;-71
2024/01/04 11:12:51;;;;;;;2.42;0.88;;;9.10;1.00;;;;;;7366117;19;20032;-72
2024/01/04 11:15:22;;;;;;;2.92;1.05;;;9.20;1.00;;;;;;7366925;19;20015;-71
2024/01/04 11:18:08;;;;;;;5.05;1.23;;;9.10;1.00;;;;;;7369874;19;20017;-71
2024/01/04 11:21:00;;;;;;;4.07;1.23;;;9.00;1.00;;;;;;6862895;19;2004062;-72
2024/01/04 11:23:49;;;;;;;6.25;1.25;;;9.10;1.00;;;;;;7366778;19;20070;-71
2024/01/04 11:26:27;;;;;;;3.45;0.90;;;9.00;1.00;;;;;;7368709;19;20117;-70
2024/01/04 11:29:09;;;;;;;1.52;0.63;;;8.90;1.00;;;;;;7362789;19;20036;-71
2024/01/04 11:31:45;;;;;;;2.30;0.60;;;8.70;1.00;;;;;;7369680;19;20022;-71
2024/01/04 11:34:16;;;;;;;4.03;0.82;;;8.70;1.00;;;;;;7369720;19;20025;-71
2024/01/04 11:36:49;;;;;;;1.33;0.60;;;8.70;1.00;;;;;;7370449;19;20429;-71
2024/01/04 11:39:29;;;;;;;2.28;0.90;;;8.50;1.00;;;;;;7368404;19;20011;-70
2024/01/04 11:41:59;;;;;;;2.65;0.60;;;8.40;1.00;;;;;;7363318;19;20040;-70
2024/01/04 11:44:40;;;;;;;5.00;0.85;;;8.50;1.00;;;;;;7367076;19;20049;-71
2024/01/04 11:47:15;;;;;;;3.40;1.13;;;8.50;1.00;;;;;;7369321;19;20547;-70
2024/01/04 11:49:49;;;;;;;4.50;1.35;;;8.60;1.00;;;;;;7364321;19;20030;-71
2024/01/04 11:52:32;;;;;;;2.38;0.85;;;8.60;1.00;;;;;;7361974;19;20006;-71
2024/01/04 11:55:03;;;;;;;1.30;0.57;;;8.80;1.00;;;;;;7364367;19;20018;-71
2024/01/04 11:57:34;;;;;;;1.92;0.63;;;8.90;1.00;;;;;;7361927;19;20054;-71
2024/01/04 12:00:17;;;;;;;3.10;1.10;;;9.00;1.00;;;;;;7364952;19;20018;-71
2024/01/04 12:02:48;;;;;;;3.53;1.23;;;9.10;1.00;;;;;;7369382;19;20027;-70
2024/01/04 12:05:20;;;;;;;4.93;0.80;;;9.30;1.00;;;;;;7367867;19;20017;-71
2024/01/04 12:07:51;;;;;;;1.83;0.80;;;9.30;1.00;;;;;;7369971;19;20015;-72
2024/01/04 12:10:22;;;;;;;2.00;0.80;;;9.30;1.00;;;;;;7366766;19;20066;-71
2024/01/04 12:12:52;;;;;;;2.67;0.90;;;9.40;1.00;;;;;;7373995;19;20526;-71
2024/01/04 12:15:25;;;;;;;3.08;1.20;;;9.50;1.00;;;;;;7372292;19;20059;-70
2024/01/04 12:17:56;;;;;;;2.50;0.93;;;9.50;1.00;;;;;;7374449;19;20094;-70
2024/01/04 12:20:26;;;;;;;4.57;1.35;;;9.60;1.00;;;;;;7381241;19;20255;-69
2024/01/04 12:22:58;;;;;;;5.20;1.05;;;9.40;1.00;;;;;;7380959;19;20360;-70
2024/01/04 12:25:29;;;;;;;4.95;1.35;;;9.50;1.00;;;;;;7380773;19;20347;-69
2024/01/04 12:27:59;;;;;;;6.35;1.58;;;9.30;1.00;;;;;;7381199;19;20533;-69
2024/01/04 12:30:33;;;;;;;4.32;1.42;;;9.30;1.00;;;;;;7390523;19;20041;-69
2024/01/04 12:33:03;;;;;;;5.22;1.48;;;9.10;1.00;;;;;;7385098;19;20006;-69
2024/01/04 12:35:33;;;;;;;7.60;1.65;;;8.90;1.00;;;;;;7384755;19;20006;-70
2024/01/04 12:38:04;;;;;;;6.65;1.65;;;9.00;1.00;;;;;;7382008;19;20904;-70
2024/01/04 12:40:41;;;;;;;5.05;1.33;;;8.90;1.00;;;;;;7388346;19;20014;-69
2024/01/04 12:43:12;;;;;;;19.98;3.15;;;9.00;1.00;;;;;;7398272;19;20014;-70
2024/01/04 12:45:45;;;;;;;7.90;1.55;;;9.10;1.00;;;;;;7395376;19;20022;-69
2024/01/04 12:48:21;;;;;;;5.47;1.15;;;9.20;1.00;;;;;;7398181;19;20011;-70
2024/01/04 12:50:52;;;;;;;5.45;1.58;;;9.10;1.00;;;;;;7396087;19;20066;-69
2024/01/04 12:53:22;;;;;;;7.70;1.92;;;9.10;1.00;;;;;;7393701;19;20046;-69
2024/01/04 12:55:52;;;;;;;2.75;1.08;;;9.30;1.00;;;;;;7387009;19;20023;-69
2024/01/04 12:58:22;;;;;;;3.95;1.25;;;9.30;1.00;;;;;;7380620;19;20019;-71
2024/01/04 13:00:55;;;;;;;5.65;1.50;;;9.40;1.00;;;;;;7380699;19;20518;-69
2024/01/04 13:03:26;;;;;;;3.58;1.15;;;9.50;1.00;;;;;;7382614;19;20063;-69
2024/01/04 13:05:56;;;;;;;6.43;1.75;;;9.50;1.00;;;;;;7379152;19;20043;-70
2024/01/04 13:08:27;;;;;;;7.13;1.38;;;9.60;1.00;;;;;;7381151;19;20435;-71
2024/01/04 13:10:57;;;;;;;6.15;1.60;;;9.40;1.00;;;;;;7377019;19;20014;-69
2024/01/04 13:13:28;;;;;;;3.75;1.48;;;9.40;1.00;;;;;;7381077;19;20426;-70
2024/01/04 13:16:05;;;;;;;5.80;1.25;;;9.40;1.00;;;;;;7377182;19;20089;-69
2024/01/04 13:18:35;;;;;;;5.40;1.60;;;9.30;1.00;;;;;;7378475;19;20089;-69
2024/01/04 13:21:06;;;;;;;6.20;1.42;;;9.20;1.00;;;;;;7378800;19;20011;-69
2024/01/04 13:23:36;;;;;;;7.45;1.77;;;9.20;1.00;;;;;;7379410;19;20030;-70
2024/01/04 13:26:06;;;;;;;3.60;1.40;;;9.20;1.00;;;;;;7377506;19;20016;-70
2024/01/04 13:28:36;;;;;;;4.63;1.70;;;9.10;1.00;;;;;;7378441;19;20021;-69
2024/01/04 13:31:10;;;;;;;6.97;1.40;;;9.10;1.00;;;;;;7380650;19;20002;-70